sensor_id;sensor_type;location;lat;lon;timestamp;temperature;humidity
74416;SHT31;62850;42.428;25.618;2024-03-23T00:54:42;6.91;58.05
74416;SHT31;62850;42.428;25.618;2024-03-23T00:57:08;6.88;58.01
74416;SHT31;62850;42.428;25.618;2024-03-23T00:59:33;6.91;57.64
74416;SHT31;62850;42.428;25.618;2024-03-23T01:01:59;7.00;57.69
74416;SHT31;62850;42.428;25.618;2024-03-23T01:04:24;6.95;58.00
74416;SHT31;62850;42.428;25.618;2024-03-23T01:06:50;6.88;58.40
74416;SHT31;62850;42.428;25.618;2024-03-23T01:09:16;6.91;58.10
74416;SHT31;62850;42.428;25.618;2024-03-23T01:11:42;6.92;58.41
74416;SHT31;62850;42.428;25.618;2024-03-23T01:14:08;6.84;58.75
74416;SHT31;62850;42.428;25.618;2024-03-23T01:16:34;6.94;58.45
74416;SHT31;62850;42.428;25.618;2024-03-23T01:18:59;6.95;58.48
74416;SHT31;62850;42.428;25.618;2024-03-23T01:21:25;6.94;58.36
74416;SHT31;62850;42.428;25.618;2024-03-23T01:23:51;6.84;58.77
74416;SHT31;62850;42.428;25.618;2024-03-23T01:26:16;6.70;59.24
74416;SHT31;62850;42.428;25.618;2024-03-23T01:28:42;6.61;59.36
74416;SHT31;62850;42.428;25.618;2024-03-23T01:31:07;6.56;59.42
74416;SHT31;62850;42.428;25.618;2024-03-23T01:33:33;6.57;58.96
74416;SHT31;62850;42.428;25.618;2024-03-23T01:35:59;6.60;58.90
74416;SHT31;62850;42.428;25.618;2024-03-23T01:38:24;6.70;58.59
74416;SHT31;62850;42.428;25.618;2024-03-23T01:40:56;6.57;59.34
74416;SHT31;62850;42.428;25.618;2024-03-23T01:43:22;6.37;60.04
74416;SHT31;62850;42.428;25.618;2024-03-23T01:45:48;6.39;59.95
74416;SHT31;62850;42.428;25.618;2024-03-23T01:48:13;6.40;60.11
74416;SHT31;62850;42.428;25.618;2024-03-23T01:50:39;6.42;60.12
74416;SHT31;62850;42.428;25.618;2024-03-23T01:53:05;6.36;60.13
74416;SHT31;62850;42.428;25.618;2024-03-23T01:55:34;6.23;60.39
74416;SHT31;62850;42.428;25.618;2024-03-23T01:58:00;6.22;60.14
74416;SHT31;62850;42.428;25.618;2024-03-23T02:00:25;6.16;60.29
74416;SHT31;62850;42.428;25.618;2024-03-23T02:02:53;6.11;60.69
74416;SHT31;62850;42.428;25.618;2024-03-23T02:05:19;6.03;60.89
74416;SHT31;62850;42.428;25.618;2024-03-23T02:07:45;6.01;61.16
74416;SHT31;62850;42.428;25.618;2024-03-23T02:10:11;6.06;60.94
74416;SHT31;62850;42.428;25.618;2024-03-23T02:12:41;6.15;61.09
74416;SHT31;62850;42.428;25.618;2024-03-23T02:15:07;6.21;60.73
74416;SHT31;62850;42.428;25.618;2024-03-23T02:17:34;6.21;60.68
74416;SHT31;62850;42.428;25.618;2024-03-23T02:20:01;6.09;61.05
74416;SHT31;62850;42.428;25.618;2024-03-23T02:22:37;5.99;61.61
74416;SHT31;62850;42.428;25.618;2024-03-23T02:25:04;5.99;61.35
74416;SHT31;62850;42.428;25.618;2024-03-23T02:27:30;5.94;61.63
74416;SHT31;62850;42.428;25.618;2024-03-23T02:29:55;5.88;61.57
74416;SHT31;62850;42.428;25.618;2024-03-23T02:32:21;5.87;61.83
74416;SHT31;62850;42.428;25.618;2024-03-23T02:34:46;5.82;61.95
74416;SHT31;62850;42.428;25.618;2024-03-23T02:37:12;5.75;62.68
74416;SHT31;62850;42.428;25.618;2024-03-23T02:39:38;5.58;62.57
74416;SHT31;62850;42.428;25.618;2024-03-23T02:42:04;5.55;62.84
74416;SHT31;62850;42.428;25.618;2024-03-23T02:44:30;5.53;62.87
74416;SHT31;62850;42.428;25.618;2024-03-23T02:46:55;5.53;63.04
74416;SHT31;62850;42.428;25.618;2024-03-23T02:49:21;5.55;63.04
74416;SHT31;62850;42.428;25.618;2024-03-23T02:51:46;5.51;63.09
74416;SHT31;62850;42.428;25.618;2024-03-23T02:54:14;5.53;63.45
74416;SHT31;62850;42.428;25.618;2024-03-23T02:56:39;5.50;63.51
74416;SHT31;62850;42.428;25.618;2024-03-23T02:59:05;5.48;63.48
74416;SHT31;62850;42.428;25.618;2024-03-23T03:01:30;5.44;63.69
74416;SHT31;62850;42.428;25.618;2024-03-23T03:03:56;5.54;63.48
74416;SHT31;62850;42.428;25.618;2024-03-23T03:06:29;5.53;63.53
74416;SHT31;62850;42.428;25.618;2024-03-23T03:08:56;5.41;63.73
74416;SHT31;62850;42.428;25.618;2024-03-23T03:11:22;5.30;64.11
74416;SHT31;62850;42.428;25.618;2024-03-23T03:13:47;5.33;64.21
74416;SHT31;62850;42.428;25.618;2024-03-23T03:16:13;5.27;64.22
74416;SHT31;62850;42.428;25.618;2024-03-23T03:18:39;5.26;64.47
74416;SHT31;62850;42.428;25.618;2024-03-23T03:21:06;5.13;64.92
74416;SHT31;62850;42.428;25.618;2024-03-23T03:23:37;5.24;64.21
74416;SHT31;62850;42.428;25.618;2024-03-23T03:26:03;5.19;64.32
74416;SHT31;62850;42.428;25.618;2024-03-23T03:28:28;5.09;64.87
74416;SHT31;62850;42.428;25.618;2024-03-23T03:30:56;5.05;64.76
74416;SHT31;62850;42.428;25.618;2024-03-23T03:33:22;5.08;65.16
74416;SHT31;62850;42.428;25.618;2024-03-23T03:35:48;5.05;64.66
74416;SHT31;62850;42.428;25.618;2024-03-23T03:38:13;5.05;64.61
74416;SHT31;62850;42.428;25.618;2024-03-23T03:40:39;4.99;64.68
74416;SHT31;62850;42.428;25.618;2024-03-23T03:43:04;5.08;64.38
74416;SHT31;62850;42.428;25.618;2024-03-23T03:45:30;4.97;64.60
74416;SHT31;62850;42.428;25.618;2024-03-23T03:47:55;5.05;64.36
74416;SHT31;62850;42.428;25.618;2024-03-23T03:50:21;4.99;64.62
74416;SHT31;62850;42.428;25.618;2024-03-23T03:52:47;4.99;64.68
74416;SHT31;62850;42.428;25.618;2024-03-23T03:55:14;5.06;64.77
74416;SHT31;62850;42.428;25.618;2024-03-23T03:57:40;5.15;64.47
74416;SHT31;62850;42.428;25.618;2024-03-23T04:00:06;5.13;64.00
74416;SHT31;62850;42.428;25.618;2024-03-23T04:02:32;5.08;64.07
74416;SHT31;62850;42.428;25.618;2024-03-23T04:04:58;5.03;64.18
74416;SHT31;62850;42.428;25.618;2024-03-23T04:07:23;4.92;65.08
74416;SHT31;62850;42.428;25.618;2024-03-23T04:09:49;4.96;64.73
74416;SHT31;62850;42.428;25.618;2024-03-23T04:12:15;4.95;64.45
74416;SHT31;62850;42.428;25.618;2024-03-23T04:14:40;4.91;64.64
74416;SHT31;62850;42.428;25.618;2024-03-23T04:17:07;4.73;65.02
74416;SHT31;62850;42.428;25.618;2024-03-23T04:19:33;4.75;65.16
74416;SHT31;62850;42.428;25.618;2024-03-23T04:21:58;4.69;66.05
74416;SHT31;62850;42.428;25.618;2024-03-23T04:24:24;4.65;65.58
74416;SHT31;62850;42.428;25.618;2024-03-23T04:26:52;4.61;65.66
74416;SHT31;62850;42.428;25.618;2024-03-23T04:29:17;4.60;65.76
74416;SHT31;62850;42.428;25.618;2024-03-23T04:31:43;4.65;65.87
74416;SHT31;62850;42.428;25.618;2024-03-23T04:34:09;4.72;65.75
74416;SHT31;62850;42.428;25.618;2024-03-23T04:36:35;4.73;65.75
74416;SHT31;62850;42.428;25.618;2024-03-23T04:39:01;4.78;65.54
74416;SHT31;62850;42.428;25.618;2024-03-23T04:41:26;4.72;65.76
74416;SHT31;62850;42.428;25.618;2024-03-23T04:43:53;4.75;66.00
74416;SHT31;62850;42.428;25.618;2024-03-23T04:46:19;4.76;66.34
74416;SHT31;62850;42.428;25.618;2024-03-23T04:48:46;4.75;66.31
74416;SHT31;62850;42.428;25.618;2024-03-23T04:51:20;4.81;66.40
74416;SHT31;62850;42.428;25.618;2024-03-23T04:53:46;4.88;66.16
74416;SHT31;62850;42.428;25.618;2024-03-23T04:56:13;5.00;65.66
74416;SHT31;62850;42.428;25.618;2024-03-23T04:58:39;5.08;65.37
74416;SHT31;62850;42.428;25.618;2024-03-23T05:01:05;5.18;65.18
74416;SHT31;62850;42.428;25.618;2024-03-23T05:03:30;5.22;65.11
74416;SHT31;62850;42.428;25.618;2024-03-23T05:05:57;5.30;65.29
74416;SHT31;62850;42.428;25.618;2024-03-23T05:08:23;5.33;64.84
74416;SHT31;62850;42.428;25.618;2024-03-23T05:10:49;5.39;64.27
74416;SHT31;62850;42.428;25.618;2024-03-23T05:13:14;5.50;64.01
74416;SHT31;62850;42.428;25.618;2024-03-23T05:15:40;5.55;63.11
74416;SHT31;62850;42.428;25.618;2024-03-23T05:18:06;5.58;64.32
74416;SHT31;62850;42.428;25.618;2024-03-23T05:20:32;5.64;63.35
74416;SHT31;62850;42.428;25.618;2024-03-23T05:22:57;5.71;62.90
74416;SHT31;62850;42.428;25.618;2024-03-23T05:25:23;5.78;62.74
74416;SHT31;62850;42.428;25.618;2024-03-23T05:27:49;5.95;62.42
74416;SHT31;62850;42.428;25.618;2024-03-23T05:30:15;6.05;62.16
74416;SHT31;62850;42.428;25.618;2024-03-23T05:32:41;6.15;62.66
74416;SHT31;62850;42.428;25.618;2024-03-23T05:35:08;6.21;62.69
74416;SHT31;62850;42.428;25.618;2024-03-23T05:37:34;6.30;62.37
74416;SHT31;62850;42.428;25.618;2024-03-23T05:40:00;6.34;62.30
74416;SHT31;62850;42.428;25.618;2024-03-23T05:42:26;6.42;62.37
74416;SHT31;62850;42.428;25.618;2024-03-23T05:44:51;6.51;61.94
74416;SHT31;62850;42.428;25.618;2024-03-23T05:47:17;6.66;61.78
74416;SHT31;62850;42.428;25.618;2024-03-23T05:49:43;6.77;61.32
74416;SHT31;62850;42.428;25.618;2024-03-23T05:52:09;6.84;60.96
74416;SHT31;62850;42.428;25.618;2024-03-23T05:54:38;6.88;60.69
74416;SHT31;62850;42.428;25.618;2024-03-23T05:57:03;6.91;60.49
74416;SHT31;62850;42.428;25.618;2024-03-23T05:59:29;6.90;60.64
74416;SHT31;62850;42.428;25.618;2024-03-23T06:01:56;6.97;60.67
74416;SHT31;62850;42.428;25.618;2024-03-23T06:04:21;7.07;60.14
74416;SHT31;62850;42.428;25.618;2024-03-23T06:06:48;7.18;59.93
74416;SHT31;62850;42.428;25.618;2024-03-23T06:09:13;7.26;59.48
74416;SHT31;62850;42.428;25.618;2024-03-23T06:11:39;7.29;59.39
74416;SHT31;62850;42.428;25.618;2024-03-23T06:14:05;7.38;59.14
74416;SHT31;62850;42.428;25.618;2024-03-23T06:16:31;7.42;58.76
74416;SHT31;62850;42.428;25.618;2024-03-23T06:18:56;7.49;58.42
74416;SHT31;62850;42.428;25.618;2024-03-23T06:21:23;7.62;58.28
74416;SHT31;62850;42.428;25.618;2024-03-23T06:23:51;7.67;58.15
74416;SHT31;62850;42.428;25.618;2024-03-23T06:26:20;7.71;58.59
74416;SHT31;62850;42.428;25.618;2024-03-23T06:28:46;7.83;58.34
74416;SHT31;62850;42.428;25.618;2024-03-23T06:31:12;7.87;59.09
74416;SHT31;62850;42.428;25.618;2024-03-23T06:33:38;7.91;59.31
74416;SHT31;62850;42.428;25.618;2024-03-23T06:36:06;8.02;59.38
74416;SHT31;62850;42.428;25.618;2024-03-23T06:38:31;8.10;59.12
74416;SHT31;62850;42.428;25.618;2024-03-23T06:40:57;8.11;58.91
74416;SHT31;62850;42.428;25.618;2024-03-23T06:43:23;8.22;59.02
74416;SHT31;62850;42.428;25.618;2024-03-23T06:45:53;8.35;58.70
74416;SHT31;62850;42.428;25.618;2024-03-23T06:48:19;8.34;58.91
74416;SHT31;62850;42.428;25.618;2024-03-23T06:50:45;8.45;58.46
74416;SHT31;62850;42.428;25.618;2024-03-23T06:53:12;8.51;58.58
74416;SHT31;62850;42.428;25.618;2024-03-23T06:55:37;8.58;59.01
74416;SHT31;62850;42.428;25.618;2024-03-23T06:58:03;8.63;59.45
74416;SHT31;62850;42.428;25.618;2024-03-23T07:00:29;8.62;60.14
74416;SHT31;62850;42.428;25.618;2024-03-23T07:02:55;8.75;59.50
74416;SHT31;62850;42.428;25.618;2024-03-23T07:05:21;8.75;59.24
74416;SHT31;62850;42.428;25.618;2024-03-23T07:07:46;8.69;59.18
74416;SHT31;62850;42.428;25.618;2024-03-23T07:10:12;8.75;59.10
74416;SHT31;62850;42.428;25.618;2024-03-23T07:12:38;8.86;58.45
74416;SHT31;62850;42.428;25.618;2024-03-23T07:15:04;8.94;58.64
74416;SHT31;62850;42.428;25.618;2024-03-23T07:17:29;9.06;58.48
74416;SHT31;62850;42.428;25.618;2024-03-23T07:19:55;9.11;58.35
74416;SHT31;62850;42.428;25.618;2024-03-23T07:22:21;9.13;58.55
74416;SHT31;62850;42.428;25.618;2024-03-23T07:24:46;9.21;58.21
74416;SHT31;62850;42.428;25.618;2024-03-23T07:27:12;9.26;57.77
74416;SHT31;62850;42.428;25.618;2024-03-23T07:29:38;9.23;58.25
74416;SHT31;62850;42.428;25.618;2024-03-23T07:32:03;9.13;58.26
74416;SHT31;62850;42.428;25.618;2024-03-23T07:34:29;9.11;58.53
74416;SHT31;62850;42.428;25.618;2024-03-23T07:36:55;9.10;58.68
74416;SHT31;62850;42.428;25.618;2024-03-23T07:39:20;9.21;58.45
74416;SHT31;62850;42.428;25.618;2024-03-23T07:41:46;9.23;58.04
74416;SHT31;62850;42.428;25.618;2024-03-23T07:44:12;9.44;57.62
74416;SHT31;62850;42.428;25.618;2024-03-23T07:46:38;9.59;57.53
74416;SHT31;62850;42.428;25.618;2024-03-23T07:49:07;9.75;56.66
74416;SHT31;62850;42.428;25.618;2024-03-23T07:51:32;9.83;57.30
74416;SHT31;62850;42.428;25.618;2024-03-23T07:53:59;9.86;56.66
74416;SHT31;62850;42.428;25.618;2024-03-23T07:56:24;9.90;56.07
74416;SHT31;62850;42.428;25.618;2024-03-23T07:58:50;9.93;55.69
74416;SHT31;62850;42.428;25.618;2024-03-23T08:01:17;9.71;56.20
74416;SHT31;62850;42.428;25.618;2024-03-23T08:03:44;9.77;56.30
74416;SHT31;62850;42.428;25.618;2024-03-23T08:06:13;9.88;55.91
74416;SHT31;62850;42.428;25.618;2024-03-23T08:08:41;10.00;55.76
74416;SHT31;62850;42.428;25.618;2024-03-23T08:11:06;10.05;55.16
74416;SHT31;62850;42.428;25.618;2024-03-23T08:13:33;9.98;55.01
74416;SHT31;62850;42.428;25.618;2024-03-23T08:16:00;10.09;55.06
74416;SHT31;62850;42.428;25.618;2024-03-23T08:18:26;10.26;54.93
74416;SHT31;62850;42.428;25.618;2024-03-23T08:21:02;10.32;54.60
74416;SHT31;62850;42.428;25.618;2024-03-23T08:23:29;10.30;54.57
74416;SHT31;62850;42.428;25.618;2024-03-23T08:26:01;10.43;57.67
74416;SHT31;62850;42.428;25.618;2024-03-23T08:28:28;10.56;54.54
74416;SHT31;62850;42.428;25.618;2024-03-23T08:30:54;10.65;54.26
74416;SHT31;62850;42.428;25.618;2024-03-23T08:33:20;10.78;55.37
74416;SHT31;62850;42.428;25.618;2024-03-23T08:38:19;11.01;53.31
74416;SHT31;62850;42.428;25.618;2024-03-23T08:40:44;11.08;52.70
74416;SHT31;62850;42.428;25.618;2024-03-23T08:43:10;10.92;52.81
74416;SHT31;62850;42.428;25.618;2024-03-23T08:45:36;10.95;52.64
74416;SHT31;62850;42.428;25.618;2024-03-23T08:48:01;11.02;52.92
74416;SHT31;62850;42.428;25.618;2024-03-23T08:50:27;11.18;52.70
74416;SHT31;62850;42.428;25.618;2024-03-23T08:52:52;11.36;52.58
74416;SHT31;62850;42.428;25.618;2024-03-23T08:55:18;11.49;52.31
74416;SHT31;62850;42.428;25.618;2024-03-23T08:57:45;11.67;51.95
74416;SHT31;62850;42.428;25.618;2024-03-23T09:00:12;11.81;51.21
74416;SHT31;62850;42.428;25.618;2024-03-23T09:02:38;11.97;51.94
74416;SHT31;62850;42.428;25.618;2024-03-23T09:05:04;11.98;50.85
74416;SHT31;62850;42.428;25.618;2024-03-23T09:07:31;12.02;50.80
74416;SHT31;62850;42.428;25.618;2024-03-23T09:09:56;12.17;50.55
74416;SHT31;62850;42.428;25.618;2024-03-23T09:12:22;12.28;50.12
74416;SHT31;62850;42.428;25.618;2024-03-23T09:14:47;12.46;49.35
74416;SHT31;62850;42.428;25.618;2024-03-23T09:17:13;12.67;48.84
74416;SHT31;62850;42.428;25.618;2024-03-23T09:19:38;12.75;48.07
74416;SHT31;62850;42.428;25.618;2024-03-23T09:22:05;12.80;47.41
74416;SHT31;62850;42.428;25.618;2024-03-23T09:24:30;12.83;47.40
74416;SHT31;62850;42.428;25.618;2024-03-23T09:26:57;12.86;47.98
74416;SHT31;62850;42.428;25.618;2024-03-23T09:29:23;12.99;47.34
74416;SHT31;62850;42.428;25.618;2024-03-23T09:31:49;13.21;47.30
74416;SHT31;62850;42.428;25.618;2024-03-23T09:34:14;13.38;46.73
74416;SHT31;62850;42.428;25.618;2024-03-23T09:36:41;13.38;47.46
74416;SHT31;62850;42.428;25.618;2024-03-23T09:39:07;13.50;46.12
74416;SHT31;62850;42.428;25.618;2024-03-23T09:41:35;13.59;46.02
74416;SHT31;62850;42.428;25.618;2024-03-23T09:44:01;13.78;45.84
74416;SHT31;62850;42.428;25.618;2024-03-23T09:46:26;13.89;44.83
74416;SHT31;62850;42.428;25.618;2024-03-23T09:48:55;13.99;44.48
74416;SHT31;62850;42.428;25.618;2024-03-23T09:51:21;14.10;46.24
74416;SHT31;62850;42.428;25.618;2024-03-23T09:53:49;14.16;44.04
74416;SHT31;62850;42.428;25.618;2024-03-23T09:56:15;14.24;43.76
74416;SHT31;62850;42.428;25.618;2024-03-23T09:58:42;14.43;43.07
74416;SHT31;62850;42.428;25.618;2024-03-23T10:01:09;14.65;42.00
74416;SHT31;62850;42.428;25.618;2024-03-23T10:03:46;14.81;41.66
74416;SHT31;62850;42.428;25.618;2024-03-23T10:06:12;14.98;41.55
74416;SHT31;62850;42.428;25.618;2024-03-23T10:08:38;15.06;41.05
74416;SHT31;62850;42.428;25.618;2024-03-23T10:11:14;15.16;40.37
74416;SHT31;62850;42.428;25.618;2024-03-23T10:13:44;15.05;40.81
74416;SHT31;62850;42.428;25.618;2024-03-23T10:16:22;15.19;40.58
74416;SHT31;62850;42.428;25.618;2024-03-23T10:18:48;15.39;40.99
74416;SHT31;62850;42.428;25.618;2024-03-23T10:21:15;15.63;40.45
74416;SHT31;62850;42.428;25.618;2024-03-23T10:23:42;15.73;38.65
74416;SHT31;62850;42.428;25.618;2024-03-23T10:26:20;15.87;39.31
74416;SHT31;62850;42.428;25.618;2024-03-23T10:28:59;16.15;38.41
74416;SHT31;62850;42.428;25.618;2024-03-23T10:31:33;16.33;37.92
74416;SHT31;62850;42.428;25.618;2024-03-23T10:34:01;16.58;37.18
74416;SHT31;62850;42.428;25.618;2024-03-23T10:36:26;16.77;35.93
74416;SHT31;62850;42.428;25.618;2024-03-23T10:38:55;16.94;35.65
74416;SHT31;62850;42.428;25.618;2024-03-23T10:41:21;17.10;34.09
74416;SHT31;62850;42.428;25.618;2024-03-23T10:43:47;17.30;33.64
74416;SHT31;62850;42.428;25.618;2024-03-23T10:46:13;17.34;33.70
74416;SHT31;62850;42.428;25.618;2024-03-23T10:48:39;17.34;33.81
74416;SHT31;62850;42.428;25.618;2024-03-23T10:51:07;17.48;33.44
74416;SHT31;62850;42.428;25.618;2024-03-23T10:53:34;17.41;31.58
74416;SHT31;62850;42.428;25.618;2024-03-23T10:56:00;17.49;31.04
74416;SHT31;62850;42.428;25.618;2024-03-23T10:58:31;17.45;32.31
74416;SHT31;62850;42.428;25.618;2024-03-23T11:00:57;17.41;32.35
74416;SHT31;62850;42.428;25.618;2024-03-23T11:03:37;17.35;32.68
74416;SHT31;62850;42.428;25.618;2024-03-23T11:06:06;17.20;33.39
74416;SHT31;62850;42.428;25.618;2024-03-23T11:08:34;17.24;33.64
74416;SHT31;62850;42.428;25.618;2024-03-23T11:11:21;17.38;32.78
74416;SHT31;62850;42.428;25.618;2024-03-23T11:13:51;17.37;32.64
74416;SHT31;62850;42.428;25.618;2024-03-23T11:18:44;17.34;35.96
74416;SHT31;62850;42.428;25.618;2024-03-23T11:21:10;17.30;31.97
74416;SHT31;62850;42.428;25.618;2024-03-23T11:23:36;17.20;33.07
74416;SHT31;62850;42.428;25.618;2024-03-23T11:26:02;17.24;34.21
74416;SHT31;62850;42.428;25.618;2024-03-23T11:28:30;17.23;33.07
74416;SHT31;62850;42.428;25.618;2024-03-23T11:30:56;17.20;34.06
74416;SHT31;62850;42.428;25.618;2024-03-23T11:33:21;17.23;34.24
74416;SHT31;62850;42.428;25.618;2024-03-23T11:35:47;17.23;30.73
74416;SHT31;62850;42.428;25.618;2024-03-23T11:38:14;17.26;32.47
74416;SHT31;62850;42.428;25.618;2024-03-23T11:40:44;17.37;28.68
74416;SHT31;62850;42.428;25.618;2024-03-23T11:43:12;17.32;27.95
74416;SHT31;62850;42.428;25.618;2024-03-23T11:45:46;17.48;28.32
74416;SHT31;62850;42.428;25.618;2024-03-23T11:48:16;17.62;27.14
74416;SHT31;62850;42.428;25.618;2024-03-23T11:50:46;17.71;27.74
74416;SHT31;62850;42.428;25.618;2024-03-23T11:53:18;17.69;26.69
74416;SHT31;62850;42.428;25.618;2024-03-23T11:55:53;17.72;28.06
74416;SHT31;62850;42.428;25.618;2024-03-23T11:58:20;17.83;29.44
74416;SHT31;62850;42.428;25.618;2024-03-23T12:00:56;17.96;26.65
74416;SHT31;62850;42.428;25.618;2024-03-23T12:03:22;18.05;25.86
74416;SHT31;62850;42.428;25.618;2024-03-23T12:05:52;18.30;24.64
74416;SHT31;62850;42.428;25.618;2024-03-23T12:11:13;18.75;26.47
74416;SHT31;62850;42.428;25.618;2024-03-23T12:13:42;18.71;25.17
74416;SHT31;62850;42.428;25.618;2024-03-23T12:16:13;18.83;23.64
74416;SHT31;62850;42.428;25.618;2024-03-23T12:18:42;19.05;25.50
74416;SHT31;62850;42.428;25.618;2024-03-23T12:21:08;19.18;24.55
74416;SHT31;62850;42.428;25.618;2024-03-23T12:23:34;19.30;24.61
74416;SHT31;62850;42.428;25.618;2024-03-23T12:26:00;19.52;25.94
74416;SHT31;62850;42.428;25.618;2024-03-23T12:28:26;19.60;28.79
74416;SHT31;62850;42.428;25.618;2024-03-23T12:30:52;19.77;27.51
74416;SHT31;62850;42.428;25.618;2024-03-23T12:33:19;19.63;26.65
74416;SHT31;62850;42.428;25.618;2024-03-23T12:35:44;19.56;28.55
74416;SHT31;62850;42.428;25.618;2024-03-23T12:38:10;19.71;27.13
74416;SHT31;62850;42.428;25.618;2024-03-23T12:40:35;19.78;27.84
74416;SHT31;62850;42.428;25.618;2024-03-23T12:43:01;19.87;25.54
74416;SHT31;62850;42.428;25.618;2024-03-23T12:45:26;19.81;26.14
74416;SHT31;62850;42.428;25.618;2024-03-23T12:47:52;19.94;25.72
74416;SHT31;62850;42.428;25.618;2024-03-23T12:50:21;20.01;25.42
74416;SHT31;62850;42.428;25.618;2024-03-23T12:52:46;20.14;24.60
74416;SHT31;62850;42.428;25.618;2024-03-23T12:55:12;20.18;25.55
74416;SHT31;62850;42.428;25.618;2024-03-23T12:57:37;20.28;24.73
74416;SHT31;62850;42.428;25.618;2024-03-23T13:00:03;20.15;26.88
74416;SHT31;62850;42.428;25.618;2024-03-23T13:02:29;20.18;26.47
74416;SHT31;62850;42.428;25.618;2024-03-23T13:04:55;20.24;25.95
74416;SHT31;62850;42.428;25.618;2024-03-23T13:07:22;20.29;25.68
74416;SHT31;62850;42.428;25.618;2024-03-23T13:09:51;20.24;25.27
74416;SHT31;62850;42.428;25.618;2024-03-23T13:12:18;20.31;25.49
74416;SHT31;62850;42.428;25.618;2024-03-23T13:14:46;20.25;25.51
74416;SHT31;62850;42.428;25.618;2024-03-23T13:17:12;20.29;25.26
74416;SHT31;62850;42.428;25.618;2024-03-23T13:19:38;20.35;25.50
74416;SHT31;62850;42.428;25.618;2024-03-23T13:22:04;20.45;25.39
74416;SHT31;62850;42.428;25.618;2024-03-23T13:24:30;20.65;25.24
74416;SHT31;62850;42.428;25.618;2024-03-23T13:26:56;20.63;24.55
74416;SHT31;62850;42.428;25.618;2024-03-23T13:29:22;20.72;24.58
74416;SHT31;62850;42.428;25.618;2024-03-23T13:31:50;20.84;25.48
74416;SHT31;62850;42.428;25.618;2024-03-23T13:34:16;20.89;24.80
74416;SHT31;62850;42.428;25.618;2024-03-23T13:36:44;20.84;23.96
74416;SHT31;62850;42.428;25.618;2024-03-23T13:39:10;20.83;23.73
74416;SHT31;62850;42.428;25.618;2024-03-23T13:41:38;20.77;23.78
74416;SHT31;62850;42.428;25.618;2024-03-23T13:44:07;20.72;24.16
74416;SHT31;62850;42.428;25.618;2024-03-23T13:46:33;20.80;23.84
74416;SHT31;62850;42.428;25.618;2024-03-23T13:48:59;20.72;23.91
74416;SHT31;62850;42.428;25.618;2024-03-23T13:51:25;20.68;24.10
74416;SHT31;62850;42.428;25.618;2024-03-23T13:53:53;20.59;23.87
74416;SHT31;62850;42.428;25.618;2024-03-23T13:56:19;20.53;24.18
74416;SHT31;62850;42.428;25.618;2024-03-23T13:58:45;20.49;24.26
74416;SHT31;62850;42.428;25.618;2024-03-23T14:01:13;20.53;23.89
74416;SHT31;62850;42.428;25.618;2024-03-23T14:03:39;20.42;24.21
74416;SHT31;62850;42.428;25.618;2024-03-23T14:06:04;20.48;23.71
74416;SHT31;62850;42.428;25.618;2024-03-23T14:08:33;20.61;23.65
74416;SHT31;62850;42.428;25.618;2024-03-23T14:11:01;20.39;24.05
74416;SHT31;62850;42.428;25.618;2024-03-23T14:13:27;20.38;23.68
74416;SHT31;62850;42.428;25.618;2024-03-23T14:15:56;20.57;24.31
74416;SHT31;62850;42.428;25.618;2024-03-23T14:18:22;20.61;23.34
74416;SHT31;62850;42.428;25.618;2024-03-23T14:20:48;20.42;23.95
74416;SHT31;62850;42.428;25.618;2024-03-23T14:23:15;20.45;24.22
74416;SHT31;62850;42.428;25.618;2024-03-23T14:25:41;20.43;23.84
74416;SHT31;62850;42.428;25.618;2024-03-23T14:28:07;20.57;23.66
74416;SHT31;62850;42.428;25.618;2024-03-23T14:30:40;20.59;23.62
74416;SHT31;62850;42.428;25.618;2024-03-23T14:33:05;20.59;23.92
74416;SHT31;62850;42.428;25.618;2024-03-23T14:35:31;20.42;23.53
74416;SHT31;62850;42.428;25.618;2024-03-23T14:37:59;20.66;24.26
74416;SHT31;62850;42.428;25.618;2024-03-23T14:40:24;20.82;23.17
74416;SHT31;62850;42.428;25.618;2024-03-23T14:42:54;20.51;23.70
74416;SHT31;62850;42.428;25.618;2024-03-23T14:45:23;20.38;22.81
74416;SHT31;62850;42.428;25.618;2024-03-23T14:47:50;20.35;23.80
74416;SHT31;62850;42.428;25.618;2024-03-23T14:50:16;20.35;23.62
74416;SHT31;62850;42.428;25.618;2024-03-23T14:52:46;20.56;22.71
74416;SHT31;62850;42.428;25.618;2024-03-23T14:55:12;20.79;22.62
74416;SHT31;62850;42.428;25.618;2024-03-23T14:57:38;20.71;22.76
74416;SHT31;62850;42.428;25.618;2024-03-23T15:00:08;20.76;23.07
74416;SHT31;62850;42.428;25.618;2024-03-23T15:02:36;20.79;22.07
74416;SHT31;62850;42.428;25.618;2024-03-23T15:05:01;20.72;22.53
74416;SHT31;62850;42.428;25.618;2024-03-23T15:07:30;20.52;22.48
74416;SHT31;62850;42.428;25.618;2024-03-23T15:09:56;20.57;22.74
74416;SHT31;62850;42.428;25.618;2024-03-23T15:12:21;20.56;22.46
74416;SHT31;62850;42.428;25.618;2024-03-23T15:14:47;20.46;22.05
74416;SHT31;62850;42.428;25.618;2024-03-23T15:17:13;20.35;22.14
74416;SHT31;62850;42.428;25.618;2024-03-23T15:19:39;20.24;22.60
74416;SHT31;62850;42.428;25.618;2024-03-23T15:22:05;20.14;22.18
74416;SHT31;62850;42.428;25.618;2024-03-23T15:24:31;20.03;22.90
74416;SHT31;62850;42.428;25.618;2024-03-23T15:26:57;19.74;22.94
74416;SHT31;62850;42.428;25.618;2024-03-23T15:29:23;19.50;23.25
74416;SHT31;62850;42.428;25.618;2024-03-23T15:31:48;19.39;23.42
74416;SHT31;62850;42.428;25.618;2024-03-23T15:34:19;19.16;23.70
74416;SHT31;62850;42.428;25.618;2024-03-23T15:36:48;19.01;23.83
74416;SHT31;62850;42.428;25.618;2024-03-23T15:39:17;18.71;23.69
74416;SHT31;62850;42.428;25.618;2024-03-23T15:41:46;18.51;23.99
74416;SHT31;62850;42.428;25.618;2024-03-23T15:44:12;18.32;23.82
74416;SHT31;62850;42.428;25.618;2024-03-23T15:46:37;17.97;24.72
74416;SHT31;62850;42.428;25.618;2024-03-23T15:49:03;17.67;25.50
74416;SHT31;62850;42.428;25.618;2024-03-23T15:51:30;17.48;25.76
74416;SHT31;62850;42.428;25.618;2024-03-23T15:53:59;17.27;25.76
74416;SHT31;62850;42.428;25.618;2024-03-23T15:56:24;17.14;26.03
74416;SHT31;62850;42.428;25.618;2024-03-23T15:58:50;17.03;26.04
74416;SHT31;62850;42.428;25.618;2024-03-23T16:01:15;16.87;26.49
74416;SHT31;62850;42.428;25.618;2024-03-23T16:03:41;16.73;26.65
74416;SHT31;62850;42.428;25.618;2024-03-23T16:06:07;16.65;26.85
74416;SHT31;62850;42.428;25.618;2024-03-23T16:08:33;16.55;26.71
74416;SHT31;62850;42.428;25.618;2024-03-23T16:11:04;16.49;26.95
74416;SHT31;62850;42.428;25.618;2024-03-23T16:13:30;16.41;27.01
74416;SHT31;62850;42.428;25.618;2024-03-23T16:15:57;16.31;26.91
74416;SHT31;62850;42.428;25.618;2024-03-23T16:18:23;16.22;26.85
74416;SHT31;62850;42.428;25.618;2024-03-23T16:20:59;16.17;27.14